createdAt,value
2023-03-28T00:00:12.351Z,3.60
2023-03-28T00:02:41.580Z,3.65
2023-03-28T00:05:11.563Z,3.57
2023-03-28T00:07:41.177Z,3.49
2023-03-28T00:10:11.429Z,3.35
2023-03-28T00:12:41.927Z,3.16
2023-03-28T00:15:11.840Z,3.12
2023-03-28T00:17:42.055Z,3.01
2023-03-28T00:20:13.219Z,3.00
2023-03-28T00:22:42.750Z,2.85
2023-03-28T00:25:12.089Z,2.95
2023-03-28T00:27:43.044Z,2.76
2023-03-28T00:30:12.840Z,2.83
2023-03-28T00:32:42.177Z,2.79
2023-03-28T00:35:11.529Z,2.66
2023-03-28T00:37:42.302Z,2.73
2023-03-28T00:40:14.435Z,2.71
2023-03-28T00:42:45.320Z,2.64
2023-03-28T00:45:14.922Z,2.76
2023-03-28T00:47:47.432Z,2.66
2023-03-28T00:50:21.733Z,2.76
2023-03-28T00:52:55.994Z,2.64
2023-03-28T00:55:28.638Z,2.50
2023-03-28T00:58:01.552Z,2.55
2023-03-28T01:00:33.143Z,2.50
2023-03-28T01:03:07.000Z,2.43
2023-03-28T01:05:38.633Z,2.41
2023-03-28T01:08:14.125Z,2.53
2023-03-28T01:10:45.456Z,2.37
2023-03-28T01:13:19.326Z,2.28
2023-03-28T01:15:51.574Z,2.44
2023-03-28T01:18:23.809Z,2.36
2023-03-28T01:21:31.489Z,2.39
2023-03-28T01:24:29.551Z,2.26
2023-03-28T01:27:08.648Z,2.31
2023-03-28T01:30:15.691Z,2.29
2023-03-28T01:33:41.017Z,2.26
2023-03-28T01:36:41.990Z,2.31
2023-03-28T01:39:19.524Z,2.24
2023-03-28T01:41:55.636Z,2.27
2023-03-28T01:44:34.222Z,2.42
2023-03-28T01:47:09.475Z,2.38
2023-03-28T01:49:49.051Z,2.41
2023-03-28T01:52:26.868Z,2.41
2023-03-28T01:55:04.569Z,2.32
2023-03-28T01:57:41.616Z,2.35
2023-03-28T02:00:20.118Z,2.42
2023-03-28T02:03:13.092Z,2.33
2023-03-28T02:05:55.747Z,2.16
2023-03-28T02:08:30.844Z,2.22
2023-03-28T02:11:18.802Z,2.20
2023-03-28T02:14:20.470Z,2.04
2023-03-28T02:17:41.980Z,1.99
2023-03-28T02:20:44.937Z,2.09
2023-03-28T02:23:38.752Z,2.08
2023-03-28T02:26:28.356Z,2.18
2023-03-28T02:29:28.659Z,2.06
2023-03-28T02:32:03.555Z,2.03
2023-03-28T02:34:33.065Z,2.04
2023-03-28T02:37:13.440Z,2.02
2023-03-28T02:40:02.146Z,1.98
2023-03-28T02:42:51.452Z,1.90
2023-03-28T02:45:52.831Z,1.90
2023-03-28T02:48:32.912Z,1.77
2023-03-28T02:51:13.101Z,1.80
2023-03-28T02:53:53.432Z,1.77
2023-03-28T02:56:32.133Z,1.79
2023-03-28T02:59:10.548Z,1.75
2023-03-28T03:01:41.936Z,1.64
2023-03-28T03:04:11.696Z,1.80
2023-03-28T03:06:41.047Z,1.79
2023-03-28T03:09:10.754Z,1.77
2023-03-28T03:11:41.397Z,1.70
2023-03-28T03:14:10.699Z,1.63
2023-03-28T03:16:40.527Z,1.56
2023-03-28T03:19:10.276Z,1.66
2023-03-28T03:21:40.166Z,1.68
2023-03-28T03:24:14.654Z,1.64
2023-03-28T03:26:47.415Z,1.65
2023-03-28T03:29:18.803Z,1.60
2023-03-28T03:31:48.488Z,1.54
2023-03-28T03:34:24.555Z,1.60
2023-03-28T03:36:57.028Z,1.56
2023-03-28T03:39:26.257Z,1.44
2023-03-28T03:41:57.728Z,1.56
2023-03-28T03:44:26.832Z,1.39
2023-03-28T03:46:56.696Z,1.42
2023-03-28T03:49:26.777Z,1.44
2023-03-28T03:51:56.001Z,1.46
2023-03-28T03:54:25.140Z,1.46
2023-03-28T03:56:55.296Z,1.47
2023-03-28T03:59:26.818Z,1.50
2023-03-28T04:01:58.617Z,1.53
2023-03-28T04:04:43.490Z,1.51
2023-03-28T04:07:26.024Z,1.50
2023-03-28T04:09:58.944Z,1.42
2023-03-28T04:12:32.397Z,1.41
2023-03-28T04:15:03.105Z,1.50
2023-03-28T04:17:41.706Z,1.44
2023-03-28T04:20:17.831Z,1.52
2023-03-28T04:23:06.184Z,1.56
2023-03-28T04:25:37.116Z,1.47
2023-03-28T04:28:28.138Z,1.54
2023-03-28T04:31:03.312Z,1.48
2023-03-28T04:34:00.648Z,1.52
2023-03-28T04:36:32.207Z,1.48
2023-03-28T04:39:05.102Z,1.46
2023-03-28T04:41:55.761Z,1.42
2023-03-28T04:44:57.017Z,1.46
2023-03-28T04:47:28.498Z,1.57
2023-03-28T04:49:58.567Z,1.52
2023-03-28T04:52:28.689Z,1.47
2023-03-28T04:54:57.882Z,1.49
2023-03-28T04:57:26.891Z,1.49
2023-03-28T05:00:03.030Z,1.54
2023-03-28T05:02:56.274Z,1.44
2023-03-28T05:05:27.978Z,1.55
2023-03-28T05:07:58.631Z,1.45
2023-03-28T05:10:27.972Z,1.60
2023-03-28T05:13:04.067Z,1.58
2023-03-28T05:15:41.219Z,1.60
2023-03-28T05:18:36.790Z,1.55
2023-03-28T05:21:07.591Z,1.58
2023-03-28T05:23:36.881Z,1.65
2023-03-28T05:26:16.329Z,1.61
2023-03-28T05:28:45.739Z,1.82
2023-03-28T05:31:15.904Z,1.72
2023-03-28T05:33:47.501Z,1.74
2023-03-28T05:36:26.210Z,1.75
2023-03-28T05:38:55.139Z,1.67
2023-03-28T05:41:24.166Z,1.61
2023-03-28T05:43:53.086Z,1.74
2023-03-28T05:46:37.785Z,1.66
2023-03-28T05:49:08.458Z,1.67
2023-03-28T05:51:38.016Z,1.71
2023-03-28T05:54:07.924Z,1.59
2023-03-28T05:56:38.198Z,1.54
2023-03-28T05:59:07.262Z,1.65
2023-03-28T06:01:43.086Z,1.63
2023-03-28T06:04:15.056Z,1.64
2023-03-28T06:06:45.631Z,1.64
2023-03-28T06:09:14.551Z,1.64
2023-03-28T06:11:51.664Z,1.60
2023-03-28T06:14:21.881Z,1.63
2023-03-28T06:16:51.137Z,1.70
2023-03-28T06:19:22.841Z,1.74
2023-03-28T06:21:54.923Z,1.76
2023-03-28T06:24:24.102Z,1.73
2023-03-28T06:26:53.021Z,1.69
2023-03-28T06:29:25.712Z,1.74
2023-03-28T06:32:02.651Z,1.78
2023-03-28T06:34:33.507Z,1.80
2023-03-28T06:37:04.137Z,1.77
2023-03-28T06:39:46.841Z,1.74
2023-03-28T06:42:16.163Z,1.65
2023-03-28T06:44:56.127Z,1.62
2023-03-28T06:47:32.649Z,1.74
2023-03-28T06:50:03.411Z,1.71
2023-03-28T06:52:41.256Z,1.70
2023-03-28T06:55:12.307Z,1.68
2023-03-28T06:57:41.621Z,1.81
2023-03-28T07:00:25.366Z,1.68
2023-03-28T07:03:20.614Z,1.63
2023-03-28T07:05:51.560Z,1.82
2023-03-28T07:08:21.637Z,1.74
2023-03-28T07:10:51.692Z,1.76
2023-03-28T07:13:20.815Z,1.67
2023-03-28T07:16:14.536Z,1.79
2023-03-28T07:18:45.070Z,1.84
2023-03-28T07:21:22.412Z,1.88
2023-03-28T07:23:51.832Z,2.02
2023-03-28T07:26:28.323Z,1.94
2023-03-28T07:28:57.697Z,2.04
2023-03-28T07:31:27.730Z,2.07
2023-03-28T07:34:00.680Z,1.98
2023-03-28T07:36:31.599Z,2.00
2023-03-28T07:39:10.511Z,2.06
2023-03-28T07:41:40.814Z,1.88
2023-03-28T07:44:09.944Z,1.83
2023-03-28T07:46:39.409Z,1.85
2023-03-28T07:49:08.848Z,1.89
2023-03-28T07:51:39.666Z,1.84
2023-03-28T07:54:17.881Z,1.82
2023-03-28T07:56:49.509Z,1.83
2023-03-28T07:59:41.951Z,1.88
2023-03-28T08:02:13.424Z,1.87
2023-03-28T08:04:42.836Z,1.87
2023-03-28T08:07:16.439Z,2.01
2023-03-28T08:09:51.171Z,1.98
2023-03-28T08:12:27.559Z,2.10
2023-03-28T08:14:56.788Z,2.26
2023-03-28T08:17:26.979Z,2.18
2023-03-28T08:19:58.516Z,2.31
2023-03-28T08:22:34.102Z,2.34
2023-03-28T08:25:33.183Z,2.30
2023-03-28T08:28:04.138Z,2.35
2023-03-28T08:30:36.072Z,2.45
2023-03-28T08:33:06.188Z,2.50
2023-03-28T08:35:36.335Z,2.49
2023-03-28T08:38:15.444Z,2.61
2023-03-28T08:40:53.782Z,2.71
2023-03-28T08:43:54.534Z,2.69
2023-03-28T08:46:25.769Z,2.88
2023-03-28T08:48:56.385Z,2.89
2023-03-28T08:51:30.892Z,2.80
2023-03-28T08:54:10.061Z,2.93
2023-03-28T08:56:45.144Z,2.83
2023-03-28T08:59:17.797Z,2.83
2023-03-28T09:01:47.477Z,2.81
2023-03-28T09:04:30.656Z,2.80
2023-03-28T09:07:18.825Z,3.01
2023-03-28T09:10:07.889Z,2.96
2023-03-28T09:13:01.730Z,3.18
2023-03-28T09:15:41.970Z,3.22
2023-03-28T09:18:37.468Z,3.38
2023-03-28T09:21:15.066Z,3.71
2023-03-28T09:23:59.953Z,3.77
2023-03-28T09:26:43.681Z,3.95
2023-03-28T09:29:20.205Z,3.88
2023-03-28T09:31:52.222Z,3.66
2023-03-28T09:34:28.137Z,3.72
2023-03-28T09:37:12.977Z,3.77
2023-03-28T09:39:51.597Z,3.88
2023-03-28T09:42:36.421Z,3.90
2023-03-28T09:45:54.002Z,3.98
2023-03-28T09:48:42.123Z,4.09
2023-03-28T09:51:18.444Z,4.05
2023-03-28T09:53:48.600Z,4.09
2023-03-28T09:56:27.842Z,3.95
2023-03-28T09:59:06.858Z,3.85
2023-03-28T10:01:46.405Z,3.71
2023-03-28T10:04:37.132Z,3.38
2023-03-28T10:07:28.367Z,3.49
2023-03-28T10:10:12.632Z,3.49
2023-03-28T10:12:43.906Z,3.41
2023-03-28T10:15:33.746Z,3.44
2023-03-28T10:18:23.007Z,3.30
2023-03-28T10:21:14.406Z,3.49
2023-03-28T10:23:50.103Z,3.47
2023-03-28T10:26:23.985Z,3.34
2023-03-28T10:28:55.680Z,3.69
2023-03-28T10:31:30.750Z,3.69
2023-03-28T10:34:28.752Z,3.87
2023-03-28T10:37:25.517Z,4.49
2023-03-28T10:40:30.611Z,4.64
2023-03-28T10:43:18.242Z,4.50
2023-03-28T10:46:16.785Z,4.68
2023-03-28T10:49:07.672Z,4.59
2023-03-28T10:51:41.641Z,4.78
2023-03-28T10:54:38.997Z,4.95
2023-03-28T10:57:24.455Z,4.62
2023-03-28T11:00:01.583Z,4.82
2023-03-28T11:02:50.320Z,5.28
2023-03-28T11:05:38.972Z,5.48
2023-03-28T11:08:31.655Z,5.65
2023-03-28T11:11:15.555Z,5.08
2023-03-28T11:14:01.893Z,5.32
2023-03-28T11:16:46.050Z,5.58
2023-03-28T11:19:51.068Z,5.82
2023-03-28T11:22:31.357Z,5.25
2023-03-28T11:25:13.664Z,4.99
2023-03-28T11:28:13.608Z,5.07
2023-03-28T11:30:50.104Z,5.14
2023-03-28T11:33:34.688Z,5.42
2023-03-28T11:36:22.298Z,5.26
2023-03-28T11:38:58.140Z,5.20
2023-03-28T11:41:34.723Z,5.53
2023-03-28T11:44:29.269Z,4.79
2023-03-28T11:47:04.154Z,4.53
2023-03-28T11:49:39.718Z,4.61
2023-03-28T11:52:27.268Z,4.40
2023-03-28T11:55:14.536Z,4.68
2023-03-28T11:57:54.975Z,4.40
2023-03-28T12:00:33.398Z,4.75
2023-03-28T12:03:17.254Z,4.94
2023-03-28T12:06:04.583Z,4.58
2023-03-28T12:08:40.892Z,4.99
2023-03-28T12:11:18.034Z,4.62
2023-03-28T12:14:22.344Z,4.98
2023-03-28T12:16:55.559Z,4.85
2023-03-28T12:19:34.231Z,4.72
2023-03-28T12:22:20.972Z,4.63
2023-03-28T12:24:57.990Z,4.41
2023-03-28T12:27:57.406Z,4.70
2023-03-28T12:30:36.758Z,4.61
2023-03-28T12:33:17.910Z,4.88
2023-03-28T12:36:05.896Z,5.13
2023-03-28T12:38:42.555Z,5.36
2023-03-28T12:41:25.676Z,5.99
2023-03-28T12:44:00.254Z,6.16
2023-03-28T12:46:46.719Z,5.88
2023-03-28T12:49:34.273Z,5.61
2023-03-28T12:52:10.005Z,5.28
2023-03-28T12:55:01.431Z,5.13
2023-03-28T12:57:49.148Z,5.33
2023-03-28T13:00:52.074Z,5.43
2023-03-28T13:03:52.848Z,6.71
2023-03-28T13:06:41.071Z,6.48
2023-03-28T13:09:23.516Z,6.72
2023-03-28T13:12:00.166Z,6.16
2023-03-28T13:14:37.666Z,6.14
2023-03-28T13:17:22.021Z,6.44
2023-03-28T13:19:54.198Z,6.41
2023-03-28T13:22:33.742Z,6.04
2023-03-28T13:25:26.113Z,5.89
2023-03-28T13:27:57.348Z,5.71
2023-03-28T13:30:30.470Z,5.67
2023-03-28T13:33:02.366Z,5.61
2023-03-28T13:35:41.222Z,5.39
2023-03-28T13:38:35.213Z,5.88
2023-03-28T13:41:07.487Z,6.08
2023-03-28T13:43:43.982Z,6.33
2023-03-28T13:46:16.397Z,6.18
2023-03-28T13:49:02.174Z,6.22
2023-03-28T13:51:38.357Z,6.20
2023-03-28T13:54:07.540Z,6.38
2023-03-28T13:56:41.215Z,6.55
2023-03-28T13:59:16.861Z,6.28
2023-03-28T14:01:49.458Z,6.28
2023-03-28T14:04:23.061Z,6.11
2023-03-28T14:06:53.067Z,6.01
2023-03-28T14:09:31.640Z,6.11
2023-03-28T14:12:05.520Z,6.06
2023-03-28T14:14:38.544Z,6.08
2023-03-28T14:17:10.278Z,6.32
2023-03-28T14:19:43.439Z,6.11
2023-03-28T14:22:16.458Z,5.83
2023-03-28T14:24:46.983Z,5.89
2023-03-28T14:27:17.918Z,5.74
2023-03-28T14:29:54.102Z,5.93
2023-03-28T14:32:27.164Z,5.90
2023-03-28T14:34:57.806Z,6.02
2023-03-28T14:37:30.091Z,5.82
2023-03-28T14:40:00.218Z,6.04
2023-03-28T14:42:32.574Z,5.87
2023-03-28T14:45:01.832Z,6.04
2023-03-28T14:47:34.469Z,6.19
2023-03-28T14:50:06.038Z,6.18
2023-03-28T14:52:41.265Z,6.08
2023-03-28T14:55:18.386Z,5.74
2023-03-28T14:57:50.834Z,5.57
2023-03-28T15:00:24.174Z,5.36
2023-03-28T15:02:54.058Z,5.41
2023-03-28T15:05:25.210Z,5.27
2023-03-28T15:07:58.665Z,5.00
2023-03-28T15:10:28.718Z,5.14
2023-03-28T15:13:06.427Z,4.86
2023-03-28T15:15:38.390Z,4.95
2023-03-28T15:18:10.030Z,4.92
2023-03-28T15:20:44.090Z,4.80
2023-03-28T15:23:18.246Z,4.44
2023-03-28T15:25:48.037Z,4.09
2023-03-28T15:28:19.854Z,3.91
2023-03-28T15:30:51.194Z,3.76
2023-03-28T15:33:24.910Z,3.56
2023-03-28T15:36:08.687Z,3.46
2023-03-28T15:38:40.777Z,3.44
2023-03-28T15:41:12.618Z,3.51
2023-03-28T15:43:59.149Z,3.41
2023-03-28T15:46:33.312Z,3.44
2023-03-28T15:49:04.493Z,3.42
2023-03-28T15:51:44.840Z,3.29
2023-03-28T15:54:28.103Z,3.33
2023-03-28T15:57:03.319Z,3.19
2023-03-28T15:59:36.528Z,3.17
2023-03-28T16:02:29.195Z,3.13
2023-03-28T16:04:59.882Z,3.15
2023-03-28T16:07:35.208Z,3.20
2023-03-28T16:10:05.299Z,3.24
2023-03-28T16:12:44.091Z,3.30
2023-03-28T16:15:38.723Z,3.27
2023-03-28T16:18:39.997Z,3.21
2023-03-28T16:21:11.745Z,3.23
2023-03-28T16:23:42.356Z,3.29
2023-03-28T16:26:11.701Z,3.25
2023-03-28T16:28:40.977Z,3.12
2023-03-28T16:31:15.211Z,3.02
2023-03-28T16:33:44.556Z,3.04
2023-03-28T16:36:14.460Z,3.01
2023-03-28T16:38:45.321Z,3.01
2023-03-28T16:41:15.038Z,2.97
2023-03-28T16:43:44.222Z,2.85
2023-03-28T16:46:14.089Z,2.81
2023-03-28T16:48:43.200Z,2.79
2023-03-28T16:51:12.199Z,2.85
2023-03-28T16:53:42.312Z,2.85
2023-03-28T16:56:15.125Z,2.78
2023-03-28T16:58:44.485Z,2.81
2023-03-28T17:01:15.770Z,2.67
2023-03-28T17:03:46.153Z,2.69
2023-03-28T17:06:16.504Z,2.67
2023-03-28T17:08:46.131Z,2.62
2023-03-28T17:11:17.695Z,2.54
2023-03-28T17:13:47.769Z,2.52
2023-03-28T17:16:17.153Z,2.54
2023-03-28T17:18:46.249Z,2.58
2023-03-28T17:21:17.479Z,2.53
2023-03-28T17:23:51.130Z,2.43
2023-03-28T17:26:21.848Z,2.31
2023-03-28T17:28:52.407Z,2.37
2023-03-28T17:31:22.204Z,2.26
2023-03-28T17:33:52.498Z,2.23
2023-03-28T17:36:24.362Z,2.25
2023-03-28T17:38:56.299Z,2.17
2023-03-28T17:41:28.086Z,2.00
2023-03-28T17:43:58.653Z,2.13
2023-03-28T17:46:28.315Z,2.12
2023-03-28T17:48:57.648Z,2.07
2023-03-28T17:51:26.717Z,2.08
2023-03-28T17:53:56.043Z,2.00
2023-03-28T17:56:26.565Z,2.02
2023-03-28T17:58:56.559Z,2.00
2023-03-28T18:01:25.651Z,1.92
2023-03-28T18:03:55.104Z,1.92
2023-03-28T18:06:47.359Z,1.89
2023-03-28T18:09:17.010Z,1.96
2023-03-28T18:11:49.379Z,1.94
2023-03-28T18:14:18.763Z,1.95
2023-03-28T18:16:48.913Z,1.95
2023-03-28T18:19:19.086Z,1.96
2023-03-28T18:21:48.344Z,1.90
2023-03-28T18:24:17.883Z,1.83
2023-03-28T18:26:48.577Z,1.85
2023-03-28T18:29:17.790Z,1.79
2023-03-28T18:31:47.542Z,1.70
2023-03-28T18:34:16.681Z,1.63
2023-03-28T18:36:45.835Z,1.65
2023-03-28T18:39:15.597Z,1.66
2023-03-28T18:41:45.069Z,1.67
2023-03-28T18:44:15.617Z,1.63
2023-03-28T18:46:44.850Z,1.51
2023-03-28T18:49:14.323Z,1.54
2023-03-28T18:51:43.605Z,1.47
2023-03-28T18:54:12.680Z,1.42
2023-03-28T18:56:41.867Z,1.43
2023-03-28T18:59:12.856Z,1.37
2023-03-28T19:01:49.838Z,1.49
2023-03-28T19:04:19.246Z,1.49
2023-03-28T19:06:49.395Z,1.39
2023-03-28T19:09:18.652Z,1.41
2023-03-28T19:11:47.740Z,1.37
2023-03-28T19:14:16.916Z,1.47
2023-03-28T19:16:47.870Z,1.55
2023-03-28T19:19:17.295Z,1.41
2023-03-28T19:21:46.424Z,1.54
2023-03-28T19:24:15.768Z,1.64
2023-03-28T19:26:44.822Z,1.54
2023-03-28T19:29:13.998Z,1.57
2023-03-28T19:31:43.590Z,1.50
2023-03-28T19:34:18.246Z,1.47
2023-03-28T19:36:47.748Z,1.60
2023-03-28T19:39:17.053Z,1.57
2023-03-28T19:41:46.170Z,1.55
2023-03-28T19:44:15.164Z,1.67
2023-03-28T19:46:44.303Z,1.72
2023-03-28T19:49:13.572Z,1.73
2023-03-28T19:51:44.169Z,1.82
2023-03-28T19:54:13.201Z,1.84
2023-03-28T19:56:42.279Z,1.85
2023-03-28T19:59:11.566Z,1.92
2023-03-28T20:01:40.638Z,1.81
2023-03-28T20:04:09.847Z,1.77
2023-03-28T20:06:38.934Z,1.71
2023-03-28T20:09:09.628Z,1.84
2023-03-28T20:11:42.219Z,1.69
2023-03-28T20:14:11.345Z,1.72
2023-03-28T20:16:40.442Z,1.76
2023-03-28T20:19:12.512Z,1.64
2023-03-28T20:21:42.373Z,1.60
2023-03-28T20:24:13.656Z,1.70
2023-03-28T20:26:42.793Z,1.63
2023-03-28T20:29:14.049Z,1.73
2023-03-28T20:31:43.287Z,1.71
2023-03-28T20:34:12.389Z,1.76
2023-03-28T20:36:42.571Z,1.73
2023-03-28T20:39:13.134Z,1.70
2023-03-28T20:41:43.549Z,1.72
2023-03-28T20:44:20.225Z,1.72
2023-03-28T20:46:50.275Z,1.63
2023-03-28T20:49:21.522Z,1.60
2023-03-28T20:51:53.194Z,1.56
2023-03-28T20:54:24.640Z,1.53
2023-03-28T20:56:54.201Z,1.48
2023-03-28T20:59:24.771Z,1.53
2023-03-28T21:01:54.850Z,1.54
2023-03-28T21:04:24.010Z,1.53
2023-03-28T21:06:55.416Z,1.50
2023-03-28T21:09:25.937Z,1.48
2023-03-28T21:11:54.960Z,1.37
2023-03-28T21:14:26.731Z,1.43
2023-03-28T21:16:58.173Z,1.46
2023-03-28T21:19:27.657Z,1.54
2023-03-28T21:21:57.360Z,1.51
2023-03-28T21:24:28.420Z,1.53
2023-03-28T21:26:57.555Z,1.61
2023-03-28T21:29:26.707Z,1.51
2023-03-28T21:31:56.744Z,1.45
2023-03-28T21:34:33.785Z,1.43
2023-03-28T21:37:03.114Z,1.46
2023-03-28T21:39:33.624Z,1.36
2023-03-28T21:42:02.617Z,1.43
2023-03-28T21:44:31.718Z,1.43
2023-03-28T21:47:00.983Z,1.25
2023-03-28T21:49:30.938Z,1.28
2023-03-28T21:52:00.050Z,1.29
2023-03-28T21:54:29.076Z,1.17
2023-03-28T21:56:59.867Z,1.16
2023-03-28T21:59:29.746Z,1.16
2023-03-28T22:01:59.659Z,1.06
2023-03-28T22:04:29.636Z,1.08
2023-03-28T22:06:58.662Z,1.02
2023-03-28T22:09:28.278Z,1.16
2023-03-28T22:11:59.842Z,1.14
2023-03-28T22:14:28.918Z,1.16
2023-03-28T22:16:57.934Z,1.09
2023-03-28T22:19:30.282Z,1.11
2023-03-28T22:22:01.141Z,1.12
2023-03-28T22:24:30.964Z,1.11
2023-03-28T22:27:01.622Z,0.93
2023-03-28T22:29:31.162Z,1.03
2023-03-28T22:32:00.297Z,1.10
2023-03-28T22:34:29.478Z,1.03
2023-03-28T22:36:58.567Z,1.01
2023-03-28T22:39:27.600Z,0.91
2023-03-28T22:41:56.820Z,1.00
2023-03-28T22:44:27.557Z,0.94
2023-03-28T22:47:02.223Z,0.94
2023-03-28T22:49:34.213Z,0.88
2023-03-28T22:52:03.443Z,0.84
2023-03-28T22:54:33.136Z,0.73
2023-03-28T22:57:04.072Z,0.78
2023-03-28T22:59:36.656Z,0.70
2023-03-28T23:02:06.272Z,0.68
2023-03-28T23:04:36.013Z,0.61
2023-03-28T23:07:05.853Z,0.58
2023-03-28T23:09:37.484Z,0.57
2023-03-28T23:12:07.501Z,0.57
2023-03-28T23:14:38.046Z,0.44
2023-03-28T23:17:07.261Z,0.57
2023-03-28T23:19:36.362Z,0.59
2023-03-28T23:22:06.727Z,0.56
2023-03-28T23:24:37.133Z,0.59
2023-03-28T23:27:07.509Z,0.70
2023-03-28T23:29:38.515Z,0.67
2023-03-28T23:32:07.651Z,0.67
2023-03-28T23:34:37.651Z,0.68
2023-03-28T23:37:07.403Z,0.63
2023-03-28T23:39:37.714Z,0.57
2023-03-28T23:42:07.205Z,0.69
2023-03-28T23:44:38.049Z,0.64
2023-03-28T23:47:07.285Z,0.62
2023-03-28T23:49:36.820Z,0.62
2023-03-28T23:52:06.140Z,0.64
2023-03-28T23:54:35.783Z,0.66
2023-03-28T23:57:05.873Z,0.58
2023-03-28T23:59:35.125Z,0.57
